createdAt,value
2022-09-28T00:00:12.695Z,2.55
2022-09-28T00:02:44.143Z,2.28
2022-09-28T00:05:13.249Z,2.40
2022-09-28T00:07:43.050Z,2.35
2022-09-28T00:10:13.413Z,2.10
2022-09-28T00:12:44.333Z,2.38
2022-09-28T00:15:16.035Z,2.25
2022-09-28T00:17:45.028Z,2.38
2022-09-28T00:20:13.569Z,2.40
2022-09-28T00:22:42.031Z,2.60
2022-09-28T00:25:16.988Z,2.83
2022-09-28T00:27:51.603Z,3.80
2022-09-28T00:30:19.663Z,2.33
2022-09-28T00:32:48.388Z,2.50
2022-09-28T00:35:16.492Z,2.20
2022-09-28T00:37:44.870Z,2.45
2022-09-28T00:40:16.278Z,4.05
2022-09-28T00:42:45.078Z,2.30
2022-09-28T00:45:20.044Z,3.00
2022-09-28T00:47:52.509Z,2.20
2022-09-28T00:50:28.103Z,2.60
2022-09-28T00:53:03.379Z,3.10
2022-09-28T00:55:37.691Z,2.70
2022-09-28T00:58:12.726Z,2.35
2022-09-28T01:00:42.891Z,2.10
2022-09-28T01:03:11.697Z,2.13
2022-09-28T01:05:44.887Z,2.67
2022-09-28T01:08:14.715Z,2.90
2022-09-28T01:10:44.972Z,2.20
2022-09-28T01:13:15.364Z,2.45
2022-09-28T01:15:50.661Z,2.40
2022-09-28T01:18:26.884Z,2.13
2022-09-28T01:21:03.234Z,2.20
2022-09-28T01:23:57.466Z,2.30
2022-09-28T01:27:03.279Z,2.38
2022-09-28T01:29:48.770Z,2.30
2022-09-28T01:32:25.473Z,1.90
2022-09-28T01:35:00.420Z,2.20
2022-09-28T01:37:37.861Z,2.10
2022-09-28T01:40:09.650Z,2.13
2022-09-28T01:42:47.978Z,1.88
2022-09-28T01:45:22.335Z,2.10
2022-09-28T01:47:52.028Z,1.90
2022-09-28T01:50:26.034Z,2.10
2022-09-28T01:52:58.342Z,1.75
2022-09-28T01:55:31.248Z,1.80
2022-09-28T01:58:06.795Z,1.80
2022-09-28T02:00:42.522Z,1.80
2022-09-28T02:03:17.124Z,2.00
2022-09-28T02:05:54.063Z,2.08
2022-09-28T02:08:28.510Z,1.90
2022-09-28T02:11:02.697Z,2.00
2022-09-28T02:13:35.691Z,2.00
2022-09-28T02:16:09.124Z,1.90
2022-09-28T02:18:42.614Z,1.90
2022-09-28T02:21:16.622Z,2.08
2022-09-28T02:23:53.457Z,2.00
2022-09-28T02:26:30.914Z,1.80
2022-09-28T02:29:08.160Z,2.00
2022-09-28T02:31:37.439Z,2.00
2022-09-28T02:34:05.855Z,1.92
2022-09-28T02:36:42.548Z,1.88
2022-09-28T02:39:15.306Z,1.80
2022-09-28T02:41:54.051Z,2.35
2022-09-28T02:44:40.880Z,2.08
2022-09-28T02:47:25.904Z,1.80
2022-09-28T02:50:06.290Z,1.80
2022-09-28T02:52:52.077Z,1.90
2022-09-28T02:55:31.083Z,1.80
2022-09-28T02:58:20.652Z,1.90
2022-09-28T03:00:58.596Z,2.20
2022-09-28T03:03:36.709Z,1.90
2022-09-28T03:06:12.120Z,2.03
2022-09-28T03:08:45.928Z,2.00
2022-09-28T03:11:20.219Z,2.00
2022-09-28T03:13:49.274Z,2.20
2022-09-28T03:16:22.685Z,2.00
2022-09-28T03:18:55.643Z,2.00
2022-09-28T03:21:24.039Z,2.00
2022-09-28T03:23:56.819Z,2.20
2022-09-28T03:26:30.377Z,2.08
2022-09-28T03:29:00.590Z,1.92
2022-09-28T03:31:32.623Z,2.13
2022-09-28T03:34:01.456Z,2.33
2022-09-28T03:36:37.988Z,2.20
2022-09-28T03:39:07.456Z,2.20
2022-09-28T03:41:36.108Z,2.20
2022-09-28T03:44:08.661Z,2.35
2022-09-28T03:46:38.871Z,2.10
2022-09-28T03:49:13.648Z,2.53
2022-09-28T03:51:44.248Z,2.50
2022-09-28T03:54:13.623Z,2.50
2022-09-28T03:56:42.108Z,2.50
2022-09-28T03:59:11.593Z,2.20
2022-09-28T04:01:45.412Z,2.20
2022-09-28T04:04:14.199Z,2.35
2022-09-28T04:06:43.644Z,2.30
2022-09-28T04:09:12.397Z,2.30
2022-09-28T04:12:02.795Z,2.30
2022-09-28T04:14:36.394Z,2.17
2022-09-28T04:17:07.485Z,2.10
2022-09-28T04:19:36.466Z,2.20
2022-09-28T04:22:05.791Z,2.20
2022-09-28T04:24:38.090Z,2.20
2022-09-28T04:27:29.008Z,2.20
2022-09-28T04:29:58.535Z,2.25
2022-09-28T04:32:31.693Z,2.15
2022-09-28T04:35:16.047Z,2.20
2022-09-28T04:37:46.897Z,2.30
2022-09-28T04:40:18.529Z,2.10
2022-09-28T04:42:57.883Z,2.10
2022-09-28T04:45:30.720Z,2.30
2022-09-28T04:48:07.705Z,2.40
2022-09-28T04:50:42.192Z,2.28
2022-09-28T04:53:11.917Z,2.60
2022-09-28T04:55:45.046Z,2.50
2022-09-28T04:58:16.292Z,2.50
2022-09-28T05:00:51.881Z,2.22
2022-09-28T05:03:26.020Z,2.30
2022-09-28T05:05:54.479Z,2.40
2022-09-28T05:08:24.902Z,2.10
2022-09-28T05:10:59.709Z,2.13
2022-09-28T05:13:27.852Z,2.15
2022-09-28T05:16:01.778Z,2.00
2022-09-28T05:18:36.215Z,2.17
2022-09-28T05:21:05.535Z,2.03
2022-09-28T05:23:35.241Z,2.03
2022-09-28T05:26:04.127Z,2.25
2022-09-28T05:28:33.994Z,2.20
2022-09-28T05:31:06.737Z,2.10
2022-09-28T05:33:38.660Z,2.10
2022-09-28T05:36:11.110Z,2.30
2022-09-28T05:38:42.254Z,2.50
2022-09-28T05:41:12.813Z,2.05
2022-09-28T05:43:48.181Z,2.30
2022-09-28T05:46:16.822Z,2.28
2022-09-28T05:48:48.003Z,2.20
2022-09-28T05:51:19.261Z,2.03
2022-09-28T05:53:50.744Z,2.03
2022-09-28T05:56:19.020Z,2.20
2022-09-28T05:58:50.514Z,2.13
2022-09-28T06:01:19.122Z,2.20
2022-09-28T06:03:48.960Z,2.08
2022-09-28T06:06:17.355Z,2.38
2022-09-28T06:08:46.443Z,2.38
2022-09-28T06:11:17.552Z,2.20
2022-09-28T06:13:46.087Z,2.25
2022-09-28T06:16:17.193Z,2.38
2022-09-28T06:18:45.963Z,2.05
2022-09-28T06:21:22.879Z,2.20
2022-09-28T06:23:52.205Z,2.22
2022-09-28T06:26:21.125Z,2.20
2022-09-28T06:28:55.357Z,2.30
2022-09-28T06:31:26.603Z,2.40
2022-09-28T06:33:56.018Z,2.25
2022-09-28T06:36:29.863Z,2.30
2022-09-28T06:39:00.021Z,2.45
2022-09-28T06:41:32.522Z,2.20
2022-09-28T06:44:02.253Z,2.28
2022-09-28T06:46:41.201Z,2.28
2022-09-28T06:49:15.105Z,2.35
2022-09-28T06:51:51.301Z,2.10
2022-09-28T06:54:26.249Z,2.20
2022-09-28T06:56:54.583Z,2.05
2022-09-28T06:59:23.555Z,2.10
2022-09-28T07:01:54.947Z,2.22
2022-09-28T07:04:23.586Z,2.05
2022-09-28T07:06:53.783Z,2.05
2022-09-28T07:09:32.400Z,2.00
2022-09-28T07:12:10.321Z,1.90
2022-09-28T07:14:47.512Z,1.80
2022-09-28T07:17:16.805Z,2.10
2022-09-28T07:19:45.893Z,1.80
2022-09-28T07:22:18.964Z,1.73
2022-09-28T07:24:50.188Z,1.80
2022-09-28T07:27:18.616Z,1.60
2022-09-28T07:29:47.418Z,1.67
2022-09-28T07:32:16.884Z,1.80
2022-09-28T07:34:45.208Z,4.82
2022-09-28T07:37:16.020Z,1.60
2022-09-28T07:40:01.155Z,1.67
2022-09-28T07:42:31.720Z,1.52
2022-09-28T07:45:00.233Z,1.70
2022-09-28T07:47:34.678Z,1.70
2022-09-28T07:50:03.399Z,8.00
2022-09-28T07:52:35.483Z,2.92
2022-09-28T07:55:07.780Z,1.92
2022-09-28T07:57:36.527Z,2.00
2022-09-28T08:00:08.907Z,1.90
2022-09-28T08:05:10.238Z,1.90
2022-09-28T08:10:11.554Z,2.25
2022-09-28T08:12:41.452Z,2.40
2022-09-28T08:15:12.032Z,2.40
2022-09-28T08:17:40.367Z,2.40
2022-09-28T08:20:30.550Z,2.63
2022-09-28T08:23:05.593Z,2.65
2022-09-28T08:25:34.335Z,3.00
2022-09-28T08:28:07.283Z,2.70
2022-09-28T08:30:36.402Z,2.30
2022-09-28T08:33:05.378Z,2.85
2022-09-28T08:35:34.173Z,2.50
2022-09-28T08:38:05.324Z,2.60
2022-09-28T08:40:45.768Z,2.45
2022-09-28T08:43:28.319Z,2.40
2022-09-28T08:46:00.880Z,2.67
2022-09-28T08:48:56.931Z,2.63
2022-09-28T08:51:40.514Z,2.53
2022-09-28T08:54:22.697Z,2.50
2022-09-28T08:56:55.574Z,2.70
2022-09-28T08:59:26.477Z,2.60
2022-09-28T09:01:59.965Z,2.40
2022-09-28T09:04:28.737Z,2.58
2022-09-28T09:07:27.211Z,2.15
2022-09-28T09:10:08.397Z,2.20
2022-09-28T09:12:49.229Z,2.70
2022-09-28T09:15:32.358Z,2.20
2022-09-28T09:18:20.159Z,2.38
2022-09-28T09:20:53.895Z,2.20
2022-09-28T09:23:36.553Z,2.05
2022-09-28T09:26:15.369Z,2.30
2022-09-28T09:29:07.931Z,2.13
2022-09-28T09:31:44.992Z,2.22
2022-09-28T09:34:25.821Z,2.40
2022-09-28T09:37:14.857Z,1.85
2022-09-28T09:40:00.516Z,2.20
2022-09-28T09:42:43.345Z,2.30
2022-09-28T09:45:26.113Z,2.10
2022-09-28T09:48:01.061Z,2.13
2022-09-28T09:50:33.980Z,2.03
2022-09-28T09:53:07.174Z,2.20
2022-09-28T09:55:41.911Z,2.20
2022-09-28T09:58:16.218Z,2.00
2022-09-28T10:00:54.628Z,2.05
2022-09-28T10:03:25.790Z,2.10
2022-09-28T10:06:06.865Z,2.10
2022-09-28T10:08:41.073Z,2.20
2022-09-28T10:11:14.467Z,2.00
2022-09-28T10:13:43.099Z,2.50
2022-09-28T10:16:14.163Z,2.20
2022-09-28T10:18:42.780Z,2.30
2022-09-28T10:21:15.902Z,2.10
2022-09-28T10:23:50.473Z,2.20
2022-09-28T10:26:26.772Z,2.22
2022-09-28T10:29:00.407Z,1.90
2022-09-28T10:31:42.862Z,2.03
2022-09-28T10:34:14.904Z,2.10
2022-09-28T10:36:51.463Z,2.30
2022-09-28T10:39:31.157Z,2.33
2022-09-28T10:42:04.545Z,2.40
2022-09-28T10:44:38.032Z,2.00
2022-09-28T10:47:17.947Z,3.33
2022-09-28T10:49:56.437Z,3.45
2022-09-28T10:52:39.972Z,3.70
2022-09-28T10:55:27.806Z,3.72
2022-09-28T10:58:23.148Z,3.50
2022-09-28T11:01:00.550Z,3.50
2022-09-28T11:03:32.160Z,3.20
2022-09-28T11:06:04.693Z,3.60
2022-09-28T11:08:40.440Z,3.72
2022-09-28T11:11:11.936Z,3.30
2022-09-28T11:13:46.519Z,2.92
2022-09-28T11:16:32.013Z,2.70
2022-09-28T11:19:24.403Z,2.20
2022-09-28T11:21:52.904Z,2.20
2022-09-28T11:24:23.823Z,1.98
2022-09-28T11:26:57.676Z,2.00
2022-09-28T11:29:37.570Z,2.10
2022-09-28T11:32:08.991Z,1.90
2022-09-28T11:35:00.608Z,1.88
2022-09-28T11:38:14.732Z,1.80
2022-09-28T11:40:53.167Z,1.95
2022-09-28T11:43:34.777Z,1.77
2022-09-28T11:46:10.846Z,1.90
2022-09-28T11:48:46.004Z,2.00
2022-09-28T11:51:20.785Z,1.80
2022-09-28T11:53:56.534Z,1.90
2022-09-28T11:56:34.817Z,2.15
2022-09-28T11:59:12.803Z,1.73
2022-09-28T12:01:46.803Z,1.75
2022-09-28T12:04:23.029Z,1.70
2022-09-28T12:07:03.828Z,1.90
2022-09-28T12:09:37.564Z,2.22
2022-09-28T12:12:16.054Z,1.80
2022-09-28T12:14:45.506Z,1.70
2022-09-28T12:17:22.187Z,1.70
2022-09-28T12:19:58.003Z,1.77
2022-09-28T12:22:34.111Z,1.85
2022-09-28T12:25:07.368Z,1.70
2022-09-28T12:27:42.247Z,1.98
2022-09-28T12:30:16.727Z,1.60
2022-09-28T12:32:50.667Z,1.65
2022-09-28T12:35:33.664Z,1.60
2022-09-28T12:38:25.988Z,1.67
2022-09-28T12:41:04.417Z,1.80
2022-09-28T12:43:57.448Z,1.55
2022-09-28T12:46:49.291Z,1.60
2022-09-28T12:52:30.479Z,1.60
2022-09-28T12:55:36.147Z,1.70
2022-09-28T12:58:23.421Z,1.55
2022-09-28T13:00:59.623Z,1.70
2022-09-28T13:04:27.294Z,1.80
2022-09-28T13:07:01.060Z,1.60
2022-09-28T13:09:42.818Z,1.60
2022-09-28T13:12:21.279Z,1.50
2022-09-28T13:15:39.501Z,1.48
2022-09-28T13:18:29.291Z,1.48
2022-09-28T13:21:22.177Z,1.50
2022-09-28T13:24:04.307Z,1.50
2022-09-28T13:26:40.091Z,1.40
2022-09-28T13:29:14.331Z,1.40
2022-09-28T13:31:50.470Z,1.45
2022-09-28T13:34:22.378Z,1.40
2022-09-28T13:37:21.673Z,1.30
2022-09-28T13:39:52.799Z,1.40
2022-09-28T13:42:40.853Z,1.40
2022-09-28T13:45:40.921Z,1.25
2022-09-28T13:48:38.603Z,1.48
2022-09-28T13:51:24.693Z,1.30
2022-09-28T13:54:23.639Z,1.20
2022-09-28T13:56:57.829Z,1.40
2022-09-28T13:59:28.404Z,1.33
2022-09-28T14:02:06.767Z,1.30
2022-09-28T14:05:02.770Z,1.30
2022-09-28T14:07:59.820Z,1.30
2022-09-28T14:10:52.028Z,1.30
2022-09-28T14:13:57.981Z,1.50
2022-09-28T14:16:28.110Z,1.30
2022-09-28T14:19:00.658Z,1.50
2022-09-28T14:22:01.666Z,1.40
2022-09-28T14:24:56.195Z,1.55
2022-09-28T14:27:51.534Z,1.40
2022-09-28T14:30:31.421Z,1.30
2022-09-28T14:33:03.003Z,1.33
2022-09-28T14:35:34.905Z,1.40
2022-09-28T14:38:31.655Z,1.40
2022-09-28T14:41:11.201Z,1.42
2022-09-28T14:44:00.393Z,1.40
2022-09-28T14:46:31.803Z,1.50
2022-09-28T14:49:03.673Z,1.40
2022-09-28T14:52:03.276Z,1.40
2022-09-28T14:54:49.470Z,1.60
2022-09-28T14:57:21.808Z,1.77
2022-09-28T14:59:50.829Z,1.50
2022-09-28T15:02:26.328Z,1.60
2022-09-28T15:05:00.609Z,1.40
2022-09-28T15:07:34.243Z,1.40
2022-09-28T15:10:04.379Z,1.50
2022-09-28T15:12:37.920Z,1.40
2022-09-28T15:15:18.470Z,1.50
2022-09-28T15:17:53.272Z,1.60
2022-09-28T15:20:36.958Z,1.65
2022-09-28T15:23:05.734Z,1.80
2022-09-28T15:25:37.494Z,1.73
2022-09-28T15:28:22.189Z,1.60
2022-09-28T15:30:52.828Z,1.80
2022-09-28T15:33:46.060Z,1.70
2022-09-28T15:36:20.577Z,1.67
2022-09-28T15:38:59.082Z,2.15
2022-09-28T15:41:35.526Z,1.92
2022-09-28T15:44:31.868Z,1.70
2022-09-28T15:47:10.721Z,1.77
2022-09-28T15:49:42.844Z,2.00
2022-09-28T15:52:26.931Z,2.20
2022-09-28T15:54:57.366Z,3.05
2022-09-28T15:57:39.348Z,4.65
2022-09-28T16:00:27.325Z,3.17
2022-09-28T16:03:25.515Z,3.33
2022-09-28T16:06:07.149Z,3.00
2022-09-28T16:08:43.339Z,3.70
2022-09-28T16:11:20.906Z,3.97
2022-09-28T16:14:04.564Z,2.95
2022-09-28T16:16:36.359Z,3.70
2022-09-28T16:21:45.210Z,6.65
2022-09-28T16:24:25.250Z,3.88
2022-09-28T16:26:59.885Z,3.28
2022-09-28T16:29:39.751Z,2.90
2022-09-28T16:32:37.875Z,2.95
2022-09-28T16:35:20.132Z,2.53
2022-09-28T16:37:59.014Z,2.70
2022-09-28T16:40:29.547Z,3.47
2022-09-28T16:43:03.418Z,2.80
2022-09-28T16:45:38.657Z,2.78
2022-09-28T16:48:08.282Z,3.65
2022-09-28T16:50:37.876Z,4.47
2022-09-28T16:53:32.508Z,4.28
2022-09-28T16:56:04.084Z,5.40
2022-09-28T16:58:33.245Z,5.13
2022-09-28T17:01:05.493Z,4.25
2022-09-28T17:03:36.079Z,3.22
2022-09-28T17:06:06.455Z,4.22
2022-09-28T17:08:37.847Z,4.93
2022-09-28T17:11:19.274Z,4.45
2022-09-28T17:13:52.050Z,4.05
2022-09-28T17:16:49.366Z,5.05
2022-09-28T17:19:20.157Z,4.55
2022-09-28T17:21:48.857Z,3.45
2022-09-28T17:24:18.117Z,2.75
2022-09-28T17:26:48.818Z,2.70
2022-09-28T17:29:18.033Z,2.67
2022-09-28T17:31:50.808Z,3.25
2022-09-28T17:34:21.467Z,3.20
2022-09-28T17:36:49.942Z,2.85
2022-09-28T17:39:21.564Z,2.67
2022-09-28T17:41:49.903Z,2.50
2022-09-28T17:44:21.418Z,2.60
2022-09-28T17:46:52.390Z,2.80
2022-09-28T17:49:20.669Z,2.63
2022-09-28T17:51:53.075Z,2.40
2022-09-28T17:54:24.162Z,2.33
2022-09-28T17:56:54.484Z,2.72
2022-09-28T17:59:22.833Z,2.80
2022-09-28T18:01:52.803Z,3.13
2022-09-28T18:04:50.175Z,3.42
2022-09-28T18:07:15.470Z,3.80
2022-09-28T18:09:43.832Z,4.43
2022-09-28T18:12:12.311Z,4.53
2022-09-28T18:14:41.136Z,4.60
2022-09-28T18:17:12.688Z,4.70
2022-09-28T18:19:40.920Z,4.57
2022-09-28T18:22:12.518Z,4.95
2022-09-28T18:24:43.954Z,5.18
2022-09-28T18:27:12.201Z,6.10
2022-09-28T18:29:40.701Z,7.07
2022-09-28T18:32:10.541Z,7.53
2022-09-28T18:34:39.532Z,7.10
2022-09-28T18:37:08.033Z,5.50
2022-09-28T18:39:36.708Z,5.72
2022-09-28T18:42:06.439Z,6.05
2022-09-28T18:44:37.086Z,6.07
2022-09-28T18:47:06.015Z,6.22
2022-09-28T18:49:42.554Z,6.63
2022-09-28T18:52:14.907Z,6.82
2022-09-28T18:54:45.847Z,6.57
2022-09-28T18:57:16.623Z,6.60
2022-09-28T18:59:44.839Z,6.30
2022-09-28T19:02:18.750Z,6.45
2022-09-28T19:04:52.439Z,5.07
2022-09-28T19:07:32.068Z,5.53
2022-09-28T19:10:00.324Z,5.00
2022-09-28T19:12:30.241Z,5.05
2022-09-28T19:14:59.794Z,4.57
2022-09-28T19:17:29.916Z,4.82
2022-09-28T19:19:59.530Z,4.95
2022-09-28T19:22:30.661Z,5.38
2022-09-28T19:25:03.527Z,5.40
2022-09-28T19:27:35.132Z,5.00
2022-09-28T19:30:07.066Z,5.80
2022-09-28T19:32:37.278Z,5.55
2022-09-28T19:35:09.168Z,5.13
2022-09-28T19:37:42.285Z,5.50
2022-09-28T19:40:14.802Z,5.85
2022-09-28T19:42:43.304Z,6.28
2022-09-28T19:45:14.785Z,6.35
2022-09-28T19:47:59.669Z,5.82
2022-09-28T19:50:32.967Z,6.00
2022-09-28T19:53:02.434Z,5.78
2022-09-28T19:55:32.588Z,6.30
2022-09-28T19:58:06.259Z,5.82
2022-09-28T20:00:42.097Z,6.67
2022-09-28T20:03:12.251Z,6.10
2022-09-28T20:05:45.738Z,6.80
2022-09-28T20:08:14.982Z,6.40
2022-09-28T20:10:52.309Z,6.47
2022-09-28T20:13:21.812Z,6.18
2022-09-28T20:15:50.851Z,6.25
2022-09-28T20:18:22.653Z,5.50
2022-09-28T20:21:02.863Z,5.85
2022-09-28T20:23:36.291Z,5.40
2022-09-28T20:26:16.242Z,5.03
2022-09-28T20:28:48.389Z,5.75
2022-09-28T20:31:21.787Z,5.18
2022-09-28T20:33:50.759Z,5.32
2022-09-28T20:36:24.327Z,5.47
2022-09-28T20:38:58.659Z,4.93
2022-09-28T20:41:29.238Z,5.00
2022-09-28T20:44:04.827Z,5.43
2022-09-28T20:46:37.440Z,5.18
2022-09-28T20:49:08.338Z,5.32
2022-09-28T20:51:45.749Z,5.22
2022-09-28T20:54:14.794Z,5.05
2022-09-28T20:56:48.262Z,5.28
2022-09-28T20:59:16.953Z,5.03
2022-09-28T21:01:45.323Z,5.55
2022-09-28T21:04:19.744Z,5.38
2022-09-28T21:06:52.085Z,5.50
2022-09-28T21:09:22.283Z,5.50
2022-09-28T21:11:56.562Z,5.13
2022-09-28T21:14:30.306Z,5.15
2022-09-28T21:17:00.009Z,5.43
2022-09-28T21:19:30.782Z,5.32
2022-09-28T21:22:00.573Z,5.20
2022-09-28T21:24:28.965Z,5.38
2022-09-28T21:27:01.173Z,5.45
2022-09-28T21:29:30.669Z,5.60
2022-09-28T21:31:59.287Z,5.43
2022-09-28T21:34:29.148Z,5.50
2022-09-28T21:37:01.824Z,5.35
2022-09-28T21:39:36.955Z,5.35
2022-09-28T21:42:05.287Z,5.10
2022-09-28T21:44:36.124Z,5.45
2022-09-28T21:47:05.061Z,5.63
2022-09-28T21:49:34.998Z,5.32
2022-09-28T21:52:10.827Z,5.43
2022-09-28T21:54:42.578Z,5.80
2022-09-28T21:57:20.159Z,5.60
2022-09-28T21:59:51.744Z,5.72
2022-09-28T22:02:22.795Z,5.75
2022-09-28T22:04:52.837Z,5.90
2022-09-28T22:07:24.617Z,5.70
2022-09-28T22:12:22.366Z,5.22
2022-09-28T22:14:55.034Z,5.68
2022-09-28T22:17:24.555Z,5.85
2022-09-28T22:19:52.830Z,5.05
2022-09-28T22:22:29.051Z,5.45
2022-09-28T22:25:00.818Z,5.43
2022-09-28T22:27:33.275Z,5.57
2022-09-28T22:30:03.865Z,5.70
2022-09-28T22:32:33.716Z,5.65
2022-09-28T22:35:03.768Z,5.38
2022-09-28T22:37:34.972Z,5.88
2022-09-28T22:40:03.299Z,6.00
2022-09-28T22:42:32.898Z,5.97
2022-09-28T22:45:07.410Z,5.95
2022-09-28T22:47:36.372Z,6.20
2022-09-28T22:50:07.819Z,5.78
2022-09-28T22:52:41.434Z,6.00
2022-09-28T22:55:10.063Z,6.60
2022-09-28T22:57:38.403Z,6.30
2022-09-28T23:00:10.423Z,6.85
2022-09-28T23:02:39.179Z,7.22
2022-09-28T23:05:08.479Z,7.50
2022-09-28T23:07:39.482Z,7.93
2022-09-28T23:10:09.029Z,8.47
2022-09-28T23:12:39.197Z,8.80
2022-09-28T23:15:12.974Z,8.82
2022-09-28T23:17:41.603Z,8.38
2022-09-28T23:20:10.818Z,8.68
2022-09-28T23:22:42.737Z,8.80
2022-09-28T23:25:11.034Z,8.35
2022-09-28T23:27:40.230Z,8.77
2022-09-28T23:30:10.471Z,8.20
2022-09-28T23:32:38.782Z,8.52
2022-09-28T23:35:08.457Z,8.38
2022-09-28T23:37:37.734Z,8.93
2022-09-28T23:40:09.375Z,8.20
2022-09-28T23:42:37.688Z,8.50
2022-09-28T23:45:08.443Z,8.50
2022-09-28T23:47:38.792Z,8.30
2022-09-28T23:50:08.239Z,8.07
2022-09-28T23:52:36.806Z,8.23
2022-09-28T23:55:08.507Z,9.30
2022-09-28T23:57:41.269Z,9.02
